Time;durP1;ratioP1;P1;durP2;ratioP2;P2;SDS_P1;SDS_P2;PMS_P1;PMS_P2;Temp;Humidity;BMP_temperature;BMP_pressure;BME280_temperature;BME280_humidity;BME280_pressure;Samples;Min_cycle;Max_cycle;Signal;HPM_P1;HPM_P2
2022/04/27 00:00:55;;;;;;;5.60;5.10;;;;;;;;;;711359;82;26437;-74
2022/04/27 00:02:03;;;;;;;5.50;5.10;;;;;;;;;;709334;82;26412;-74
2022/04/27 00:03:28;;;;;;;5.70;5.20;;;;;;;;;;705239;82;26899;-73
2022/04/27 00:08:06;;;;;;;6.08;5.53;;;;;;;;;;712182;79;26474;-74
2022/04/27 00:09:11;;;;;;;5.90;5.40;;;;;;;;;;736140;79;26333;-75
2022/04/27 00:10:23;;;;;;;7.33;5.28;;;;;;;;;;779069;76;26277;-74
2022/04/27 00:11:26;;;;;;;5.42;5.03;;;;;;;;;;775634;76;26219;-73
2022/04/27 00:12:31;;;;;;;5.90;5.28;;;;;;;;;;762612;76;26261;-74
2022/04/27 00:13:41;;;;;;;5.60;5.10;;;;;;;;;;756482;77;26711;-75
2022/04/27 00:16:28;;;;;;;7.80;5.40;;;;;;;;;;765942;75;26317;-74
2022/04/27 00:17:32;;;;;;;5.75;5.25;;;;;;;;;;782290;75;26239;-73
2022/04/27 00:18:38;;;;;;;5.83;5.33;;;;;;;;;;780960;75;26773;-72
2022/04/27 00:19:44;;;;;;;5.95;5.03;;;;;;;;;;795403;74;26223;-74
2022/04/27 00:20:50;;;;;;;6.00;5.50;;;;;;;;;;776074;75;26244;-75
2022/04/27 00:21:53;;;;;;;5.15;4.75;;;;;;;;;;779749;74;26317;-75
2022/04/27 00:22:57;;;;;;;6.83;5.60;;;;;;;;;;779835;76;26248;-74
2022/04/27 00:24:07;;;;;;;7.58;4.97;;;;;;;;;;776941;75;26236;-74
2022/04/27 00:28:37;;;;;;;5.75;5.25;;;;;;;;;;765251;75;26278;-73
2022/04/27 00:29:43;;;;;;;5.83;5.33;;;;;;;;;;762899;77;26257;-74
2022/04/27 00:30:47;;;;;;;7.00;5.40;;;;;;;;;;756982;77;26759;-72
2022/04/27 00:47:48;;;;;;;5.92;5.40;;;;;;;;;;766372;75;26249;-75
2022/04/27 00:48:52;;;;;;;6.47;5.75;;;;;;;;;;753965;77;26268;-75
2022/04/27 00:50:02;;;;;;;4.95;4.55;;;;;;;;;;766331;76;26248;-74
2022/04/27 00:51:02;;;;;;;6.12;5.47;;;;;;;;;;774592;76;26728;-74
2022/04/27 00:52:06;;;;;;;5.90;5.30;;;;;;;;;;757511;75;26277;-73
2022/04/27 00:53:09;;;;;;;5.80;5.30;;;;;;;;;;762278;76;26744;-73
2022/04/27 00:58:52;;;;;;;6.15;5.65;;;;;;;;;;751458;73;26166;-72
2022/04/27 00:59:55;;;;;;;5.85;5.30;;;;;;;;;;758717;77;26266;-73
2022/04/27 01:00:58;;;;;;;6.28;5.67;;;;;;;;;;751107;77;26684;-75
2022/04/27 01:02:01;;;;;;;6.05;5.55;;;;;;;;;;754283;77;26277;-75
2022/04/27 01:03:04;;;;;;;5.67;5.17;;;;;;;;;;758090;78;26303;-73
2022/04/27 01:17:22;;;;;;;8.48;6.15;;;;;;;;;;787232;74;26286;-73
2022/04/27 01:18:25;;;;;;;7.00;6.30;;;;;;;;;;770974;76;26310;-73
2022/04/27 01:19:28;;;;;;;6.12;5.62;;;;;;;;;;777265;75;26245;-72
2022/04/27 01:20:35;;;;;;;7.75;6.40;;;;;;;;;;782921;75;26243;-73
2022/04/27 01:21:40;;;;;;;6.65;6.10;;;;;;;;;;787063;75;26301;-73
2022/04/27 01:22:43;;;;;;;6.87;6.22;;;;;;;;;;787732;75;26245;-73
2022/04/27 01:30:42;;;;;;;6.78;6.00;;;;;;;;;;787157;74;26196;-74
2022/04/27 01:35:32;;;;;;;6.42;5.83;;;;;;;;;;763210;76;26194;-72
2022/04/27 01:36:35;;;;;;;5.85;5.35;;;;;;;;;;759623;77;26703;-73
2022/04/27 01:38:58;;;;;;;6.00;5.50;;;;;;;;;;766565;76;26321;-73
2022/04/27 01:40:02;;;;;;;6.85;5.80;;;;;;;;;;771431;76;26730;-73
2022/04/27 01:41:05;;;;;;;7.10;6.22;;;;;;;;;;780717;75;26686;-73
2022/04/27 01:42:07;;;;;;;6.65;6.15;;;;;;;;;;777629;75;26253;-74
2022/04/27 01:43:10;;;;;;;9.50;6.53;;;;;;;;;;783391;75;26260;-75
2022/04/27 01:55:54;;;;;;;7.90;6.92;;;;;;;;;;777594;74;26246;-74
2022/04/27 01:56:57;;;;;;;6.95;6.33;;;;;;;;;;778855;75;26347;-73
2022/04/27 01:58:00;;;;;;;8.13;6.40;;;;;;;;;;777971;75;26253;-73
2022/04/27 01:59:03;;;;;;;8.88;6.87;;;;;;;;;;781289;75;26668;-72
2022/04/27 02:00:08;;;;;;;6.25;5.75;;;;;;;;;;778560;75;26722;-73
2022/04/27 02:01:11;;;;;;;6.58;5.97;;;;;;;;;;775181;74;26686;-74
2022/04/27 02:02:15;;;;;;;7.97;5.55;;;;;;;;;;776460;75;26249;-73
2022/04/27 02:03:19;;;;;;;6.95;6.25;;;;;;;;;;774778;75;26253;-73
2022/04/27 02:07:50;;;;;;;8.13;5.85;;;;;;;;;;774979;75;26248;-72
2022/04/27 02:08:53;;;;;;;6.62;6.05;;;;;;;;;;773813;75;26261;-73
2022/04/27 02:09:56;;;;;;;6.00;5.50;;;;;;;;;;783992;75;26330;-73
2022/04/27 02:11:06;;;;;;;6.00;5.50;;;;;;;;;;773211;76;26728;-73
2022/04/27 02:12:09;;;;;;;6.33;5.72;;;;;;;;;;772612;75;26348;-73
2022/04/27 02:13:12;;;;;;;5.75;5.25;;;;;;;;;;774888;75;26757;-73
2022/04/27 02:17:39;;;;;;;6.40;5.90;;;;;;;;;;769433;76;26716;-73
2022/04/27 02:18:42;;;;;;;6.80;6.00;;;;;;;;;;764813;77;26251;-73
2022/04/27 02:21:05;;;;;;;6.05;5.55;;;;;;;;;;757251;77;26304;-74
2022/04/27 02:22:08;;;;;;;7.47;5.80;;;;;;;;;;768017;77;26694;-74
2022/04/27 02:28:41;;;;;;;6.35;5.75;;;;;;;;;;770811;76;26283;-74
2022/04/27 02:29:44;;;;;;;11.12;6.33;;;;;;;;;;765738;76;26257;-73
2022/04/27 02:30:47;;;;;;;7.67;6.22;;;;;;;;;;765919;77;26261;-74
2022/04/27 02:31:50;;;;;;;7.10;6.05;;;;;;;;;;765463;77;26440;-73
2022/04/27 02:32:53;;;;;;;6.37;5.80;;;;;;;;;;761790;76;26331;-73
2022/04/27 02:37:24;;;;;;;6.70;5.95;;;;;;;;;;805898;72;26170;-73
2022/04/27 02:38:29;;;;;;;6.67;6.00;;;;;;;;;;796744;73;26753;-74
2022/04/27 02:39:32;;;;;;;9.28;6.40;;;;;;;;;;804521;73;26287;-74
2022/04/27 02:40:35;;;;;;;7.28;6.12;;;;;;;;;;799321;73;26651;-74
2022/04/27 02:41:38;;;;;;;7.05;6.37;;;;;;;;;;804418;72;26778;-73
2022/04/27 02:42:41;;;;;;;9.08;6.45;;;;;;;;;;803384;72;26722;-74
2022/04/27 02:46:40;;;;;;;6.50;5.80;;;;;;;;;;779479;73;26286;-73
2022/04/27 02:47:43;;;;;;;8.03;6.70;;;;;;;;;;770175;76;26768;-73
2022/04/27 02:52:48;;;;;;;7.15;6.25;;;;;;;;;;766167;76;26309;-74
2022/04/27 02:57:07;;;;;;;8.80;6.10;;;;;;;;;;783148;75;26204;-72
2022/04/27 02:58:10;;;;;;;6.47;5.87;;;;;;;;;;782635;75;26692;-75
2022/04/27 02:59:13;;;;;;;7.10;6.33;;;;;;;;;;780164;75;26794;-76
2022/04/27 03:00:16;;;;;;;6.85;5.92;;;;;;;;;;786345;75;26297;-75
2022/04/27 03:03:03;;;;;;;7.78;6.10;;;;;;;;;;768074;75;26665;-75
2022/04/27 03:05:51;;;;;;;6.45;5.85;;;;;;;;;;782554;73;26232;-73
2022/04/27 03:06:56;;;;;;;6.40;5.90;;;;;;;;;;774984;76;26230;-75
2022/04/27 03:07:59;;;;;;;6.97;6.15;;;;;;;;;;764301;76;26252;-74
2022/04/27 03:09:02;;;;;;;6.80;6.10;;;;;;;;;;773631;76;26306;-74
2022/04/27 03:10:05;;;;;;;6.60;6.00;;;;;;;;;;783079;73;26222;-74
2022/04/27 03:11:08;;;;;;;7.15;6.40;;;;;;;;;;798521;74;26235;-74
2022/04/27 03:12:12;;;;;;;6.30;5.70;;;;;;;;;;803696;73;26238;-74
2022/04/27 03:16:32;;;;;;;8.03;6.08;;;;;;;;;;782370;75;26158;-73
2022/04/27 03:17:35;;;;;;;10.28;7.00;;;;;;;;;;782048;75;26297;-73
2022/04/27 03:21:53;;;;;;;7.75;6.97;;;;;;;;;;784286;75;26179;-73
2022/04/27 03:22:56;;;;;;;8.28;7.47;;;;;;;;;;774656;76;26242;-73
2022/04/27 03:25:44;;;;;;;10.30;8.18;;;;;;;;;;779302;75;26743;-76
2022/04/27 03:26:47;;;;;;;12.37;9.63;;;;;;;;;;772224;77;26667;-74
2022/04/27 03:27:51;;;;;;;20.12;11.85;;;;;;;;;;775235;75;26235;-74
2022/04/27 03:32:12;;;;;;;8.80;7.87;;;;;;;;;;801230;73;26142;-74
2022/04/27 03:37:54;;;;;;;11.08;7.83;;;;;;;;;;770927;76;26764;-73
2022/04/27 03:40:47;;;;;;;8.10;6.60;;;;;;;;;;777847;73;26370;-75
2022/04/27 03:46:27;;;;;;;9.38;6.65;;;;;;;;;;773588;76;26250;-73
2022/04/27 04:15:42;;;;;;;10.13;9.13;;;;;;;;;;796445;73;26214;-74
2022/04/27 04:16:45;;;;;;;9.05;8.00;;;;;;;;;;778060;76;26232;-74
2022/04/27 04:17:48;;;;;;;10.75;8.78;;;;;;;;;;793140;74;26219;-75
2022/04/27 04:22:22;;;;;;;8.90;8.00;;;;;;;;;;769266;75;26236;-74
2022/04/27 04:29:13;;;;;;;9.50;8.33;;;;;;;;;;803804;74;26232;-72
2022/04/27 04:32:33;;;;;;;8.73;7.87;;;;;;;;;;803932;74;26609;-74
2022/04/27 04:55:43;;;;;;;8.00;6.80;;;;;;;;;;800128;74;26240;-75
2022/04/27 04:56:47;;;;;;;6.87;5.87;;;;;;;;;;800586;74;27338;-75
2022/04/27 04:57:50;;;;;;;6.63;6.03;;;;;;;;;;800620;74;26226;-76
2022/04/27 04:58:52;;;;;;;6.40;5.90;;;;;;;;;;800344;74;26592;-77
2022/04/27 04:59:55;;;;;;;6.30;5.80;;;;;;;;;;794127;73;26459;-74
2022/04/27 05:00:59;;;;;;;6.27;5.77;;;;;;;;;;801296;74;26932;-76
2022/04/27 05:02:01;;;;;;;7.53;5.90;;;;;;;;;;800045;74;26940;-76
2022/04/27 05:08:41;;;;;;;7.97;7.00;;;;;;;;;;786750;75;26386;-76
2022/04/27 05:09:44;;;;;;;7.67;6.80;;;;;;;;;;799038;74;26226;-76
2022/04/27 05:10:48;;;;;;;7.20;6.50;;;;;;;;;;799317;74;26498;-76
2022/04/27 05:11:52;;;;;;;9.43;6.23;;;;;;;;;;800780;73;26446;-75
2022/04/27 05:14:53;;;;;;;6.50;5.80;;;;;;;;;;802447;73;26573;-76
2022/04/27 05:15:58;;;;;;;6.50;5.97;;;;;;;;;;788503;75;26452;-77
2022/04/27 05:17:02;;;;;;;6.37;5.67;;;;;;;;;;788595;75;26512;-76
2022/04/27 05:18:06;;;;;;;5.97;5.47;;;;;;;;;;782032;76;26292;-76
2022/04/27 05:19:09;;;;;;;5.60;5.20;;;;;;;;;;805780;72;26505;-75
2022/04/27 05:20:13;;;;;;;6.37;5.87;;;;;;;;;;804699;74;26388;-76
2022/04/27 05:21:17;;;;;;;8.00;6.03;;;;;;;;;;788487;75;26457;-76
2022/04/27 05:26:26;;;;;;;7.17;5.93;;;;;;;;;;788364;75;26406;-76
2022/04/27 05:27:30;;;;;;;6.73;6.17;;;;;;;;;;816268;72;26823;-75
2022/04/27 05:31:54;;;;;;;7.73;5.90;;;;;;;;;;816698;72;26405;-76
2022/04/27 05:32:19;;;;;;;7.07;6.27;;;;;;;;;;816646;72;26359;-77
2022/04/27 05:34:49;;;;;;;7.63;6.83;;;;;;;;;;798612;74;26413;-76
2022/04/27 05:35:52;;;;;;;7.30;6.70;;;;;;;;;;802298;74;26439;-78
2022/04/27 05:36:54;;;;;;;7.70;6.90;;;;;;;;;;802411;74;26344;-77
2022/04/27 05:37:58;;;;;;;7.37;6.67;;;;;;;;;;803101;74;26876;-76
2022/04/27 05:39:02;;;;;;;7.17;6.60;;;;;;;;;;801975;74;26456;-77
2022/04/27 05:40:07;;;;;;;9.53;7.40;;;;;;;;;;802960;73;26597;-76
2022/04/27 05:41:13;;;;;;;7.07;6.37;;;;;;;;;;803008;74;26453;-76
2022/04/27 05:42:16;;;;;;;7.13;6.53;;;;;;;;;;803007;73;26838;-76
2022/04/27 05:45:09;;;;;;;6.83;6.00;;;;;;;;;;800839;73;26924;-75
2022/04/27 05:46:15;;;;;;;6.57;5.70;;;;;;;;;;800460;74;26523;-76
2022/04/27 05:47:20;;;;;;;8.33;6.70;;;;;;;;;;784132;75;26296;-76
2022/04/27 05:48:24;;;;;;;8.80;7.40;;;;;;;;;;780171;76;26472;-77
2022/04/27 05:49:27;;;;;;;7.53;6.83;;;;;;;;;;800190;74;26781;-76
2022/04/27 05:50:31;;;;;;;7.60;6.97;;;;;;;;;;800570;74;26873;-75
2022/04/27 05:51:34;;;;;;;8.67;6.77;;;;;;;;;;800833;74;26475;-74
2022/04/27 05:56:19;;;;;;;7.00;6.40;;;;;;;;;;785825;75;26478;-76
2022/04/27 05:57:23;;;;;;;6.70;6.10;;;;;;;;;;771163;77;26869;-75
2022/04/27 06:06:06;;;;;;;7.87;7.03;;;;;;;;;;759194;77;26895;-75
2022/04/27 06:07:10;;;;;;;7.77;6.20;;;;;;;;;;760070;77;26954;-73
2022/04/27 06:08:15;;;;;;;6.23;5.80;;;;;;;;;;759735;78;27013;-74
2022/04/27 06:14:52;;;;;;;6.47;5.97;;;;;;;;;;751800;79;26316;-74
2022/04/27 06:15:55;;;;;;;8.47;7.37;;;;;;;;;;751782;79;26507;-75
2022/04/27 06:17:01;;;;;;;10.40;8.03;;;;;;;;;;750652;79;26591;-77
2022/04/27 06:18:06;;;;;;;10.83;8.00;;;;;;;;;;750709;79;26906;-76
2022/04/27 06:19:09;;;;;;;8.80;8.10;;;;;;;;;;764102;76;26487;-75
2022/04/27 06:20:13;;;;;;;8.10;6.97;;;;;;;;;;763791;77;26372;-76
2022/04/27 06:21:17;;;;;;;8.90;7.57;;;;;;;;;;763839;77;26531;-76
2022/04/27 06:22:20;;;;;;;8.13;7.33;;;;;;;;;;763784;77;26372;-77
2022/04/27 06:25:40;;;;;;;9.60;7.60;;;;;;;;;;733893;80;26497;-75
2022/04/27 06:26:43;;;;;;;7.87;7.03;;;;;;;;;;764796;77;26419;-77
2022/04/27 06:27:48;;;;;;;9.57;7.17;;;;;;;;;;764093;77;26503;-75
2022/04/27 06:28:51;;;;;;;8.30;7.60;;;;;;;;;;778760;75;26437;-77
2022/04/27 06:29:54;;;;;;;8.03;7.20;;;;;;;;;;778724;76;26427;-75
2022/04/27 06:30:57;;;;;;;8.30;7.60;;;;;;;;;;778659;76;26496;-76
2022/04/27 06:32:00;;;;;;;9.80;8.60;;;;;;;;;;778896;76;27046;-74
2022/04/27 06:36:32;;;;;;;8.57;7.77;;;;;;;;;;763880;77;26899;-74
2022/04/27 06:37:36;;;;;;;9.80;7.80;;;;;;;;;;764311;77;26859;-76
2022/04/27 06:38:38;;;;;;;9.00;8.20;;;;;;;;;;763975;77;26704;-75
2022/04/27 06:39:45;;;;;;;10.93;7.43;;;;;;;;;;763517;77;26524;-75
2022/04/27 06:40:47;;;;;;;10.40;7.90;;;;;;;;;;763953;77;26552;-75
2022/04/27 06:41:50;;;;;;;8.40;7.70;;;;;;;;;;763897;77;27000;-75
2022/04/27 06:44:58;;;;;;;8.93;8.03;;;;;;;;;;763970;77;27026;-76
2022/04/27 06:46:02;;;;;;;9.97;8.43;;;;;;;;;;751203;79;27020;-77
2022/04/27 06:47:05;;;;;;;10.47;7.77;;;;;;;;;;751211;79;26581;-75
2022/04/27 06:48:08;;;;;;;9.90;7.40;;;;;;;;;;749796;79;26669;-76
2022/04/27 06:54:52;;;;;;;9.77;8.83;;;;;;;;;;786692;75;27113;-75
2022/04/27 06:55:54;;;;;;;9.17;8.27;;;;;;;;;;799251;74;26610;-75
2022/04/27 07:00:39;;;;;;;9.37;8.53;;;;;;;;;;777634;76;26602;-74
2022/04/27 07:01:42;;;;;;;10.43;8.17;;;;;;;;;;777586;76;26640;-75
2022/04/27 07:06:18;;;;;;;9.50;8.50;;;;;;;;;;791406;75;26640;-76
2022/04/27 07:07:23;;;;;;;9.63;8.20;;;;;;;;;;789938;75;26932;-75
2022/04/27 07:08:26;;;;;;;9.33;8.33;;;;;;;;;;790895;75;26744;-75
2022/04/27 07:09:31;;;;;;;9.50;8.57;;;;;;;;;;791211;75;26929;-74
2022/04/27 07:10:36;;;;;;;12.27;9.13;;;;;;;;;;791284;75;26989;-76
2022/04/27 07:11:42;;;;;;;9.90;8.63;;;;;;;;;;790690;75;26924;-75
2022/04/27 07:18:10;;;;;;;8.10;7.40;;;;;;;;;;771609;77;27378;-75
2022/04/27 07:19:14;;;;;;;11.27;7.70;;;;;;;;;;759277;78;27048;-74
2022/04/27 07:20:18;;;;;;;9.47;8.43;;;;;;;;;;747810;78;26961;-75
2022/04/27 07:21:23;;;;;;;8.20;7.57;;;;;;;;;;760721;77;26965;-76
2022/04/27 07:26:18;;;;;;;8.70;7.80;;;;;;;;;;770135;76;26962;-75
2022/04/27 07:27:22;;;;;;;8.83;8.00;;;;;;;;;;770968;77;27003;-75
2022/04/27 07:28:24;;;;;;;12.00;8.60;;;;;;;;;;770457;77;26986;-74
2022/04/27 07:29:28;;;;;;;9.60;8.50;;;;;;;;;;771287;76;27360;-75
2022/04/27 07:30:31;;;;;;;10.67;8.40;;;;;;;;;;751074;79;27448;-75
2022/04/27 07:31:35;;;;;;;12.37;8.60;;;;;;;;;;752331;79;27026;-76
2022/04/27 07:36:16;;;;;;;9.03;8.07;;;;;;;;;;758114;77;27029;-76
2022/04/27 07:37:19;;;;;;;9.47;8.30;;;;;;;;;;756894;78;27417;-75
2022/04/27 07:38:23;;;;;;;9.30;8.37;;;;;;;;;;757085;78;26956;-75
2022/04/27 07:39:25;;;;;;;10.63;8.73;;;;;;;;;;756872;78;26950;-75
2022/04/27 07:56:18;;;;;;;9.57;8.57;;;;;;;;;;770859;76;26946;-76
2022/04/27 07:57:21;;;;;;;10.13;9.13;;;;;;;;;;786974;75;26960;-76
2022/04/27 07:58:24;;;;;;;9.60;8.60;;;;;;;;;;787090;75;26967;-76
2022/04/27 07:59:28;;;;;;;10.10;8.90;;;;;;;;;;785252;75;26928;-76
2022/04/27 08:00:32;;;;;;;12.07;10.20;;;;;;;;;;787244;75;26905;-75
2022/04/27 08:01:35;;;;;;;11.03;9.93;;;;;;;;;;803545;73;26945;-78
2022/04/27 08:03:17;;;;;;;10.07;9.10;;;;;;;;;;773566;76;26940;-77
2022/04/27 08:04:21;;;;;;;9.93;9.00;;;;;;;;;;759775;78;26959;-77
2022/04/27 08:05:27;;;;;;;10.83;8.80;;;;;;;;;;773450;76;27001;-76
2022/04/27 08:06:31;;;;;;;10.67;9.20;;;;;;;;;;774820;76;26929;-75
2022/04/27 08:07:36;;;;;;;8.70;7.87;;;;;;;;;;774752;76;26964;-75
2022/04/27 08:08:39;;;;;;;9.90;8.90;;;;;;;;;;770570;76;27010;-75
2022/04/27 08:09:42;;;;;;;10.00;9.10;;;;;;;;;;772688;76;26944;-77
2022/04/27 08:10:48;;;;;;;9.07;8.20;;;;;;;;;;773248;76;27014;-80
2022/04/27 08:15:38;;;;;;;11.57;8.10;;;;;;;;;;774501;76;26927;-76
2022/04/27 08:16:42;;;;;;;8.83;7.93;;;;;;;;;;776576;76;26927;-76
2022/04/27 08:17:55;;;;;;;8.50;7.80;;;;;;;;;;775182;76;26870;-75
2022/04/27 08:18:58;;;;;;;7.10;6.50;;;;;;;;;;775288;76;26875;-76
2022/04/27 08:21:27;;;;;;;7.70;7.00;;;;;;;;;;775289;76;26948;-77
2022/04/27 08:38:04;;;;;;;8.00;6.83;;;;;;;;;;761930;78;26989;-75
2022/04/27 08:39:10;;;;;;;7.60;6.30;;;;;;;;;;765274;77;26955;-78
2022/04/27 08:40:13;;;;;;;8.00;6.70;;;;;;;;;;765688;77;26967;-76
2022/04/27 08:41:16;;;;;;;7.00;6.30;;;;;;;;;;762875;78;26973;-76
2022/04/27 08:45:37;;;;;;;9.87;8.87;;;;;;;;;;779409;76;26916;-76
2022/04/27 08:46:43;;;;;;;8.53;7.20;;;;;;;;;;765955;77;26945;-77
2022/04/27 08:47:47;;;;;;;7.33;6.63;;;;;;;;;;765344;77;26952;-76
2022/04/27 08:48:51;;;;;;;7.47;6.60;;;;;;;;;;766200;77;26926;-76
2022/04/27 08:49:56;;;;;;;7.60;6.27;;;;;;;;;;767187;76;26938;-77
2022/04/27 08:51:05;;;;;;;7.10;5.80;;;;;;;;;;766290;76;26947;-76
2022/04/27 08:54:21;;;;;;;6.33;5.73;;;;;;;;;;765719;77;26901;-75
2022/04/27 08:55:27;;;;;;;7.40;5.37;;;;;;;;;;749389;78;26955;-76
2022/04/27 08:56:30;;;;;;;6.40;5.67;;;;;;;;;;750126;78;27440;-76
2022/04/27 08:57:33;;;;;;;6.07;5.40;;;;;;;;;;749545;78;27059;-76
2022/04/27 08:58:37;;;;;;;7.03;5.73;;;;;;;;;;746865;79;26949;-76
2022/04/27 08:59:43;;;;;;;6.70;6.00;;;;;;;;;;746721;79;27036;-77
2022/04/27 09:00:48;;;;;;;5.93;5.53;;;;;;;;;;749922;78;26959;-77
2022/04/27 09:04:07;;;;;;;5.97;5.37;;;;;;;;;;750424;78;26966;-75
2022/04/27 09:05:12;;;;;;;6.40;5.40;;;;;;;;;;790237;75;26911;-76
2022/04/27 09:06:17;;;;;;;7.00;5.53;;;;;;;;;;790438;75;26896;-77
2022/04/27 09:07:23;;;;;;;5.80;5.20;;;;;;;;;;776075;76;26858;-76
2022/04/27 09:08:40;;;;;;;7.43;5.80;;;;;;;;;;776255;76;26855;-76
2022/04/27 09:09:47;;;;;;;6.50;6.00;;;;;;;;;;788991;75;26925;-76
2022/04/27 09:10:51;;;;;;;6.07;5.50;;;;;;;;;;790027;75;27486;-77
2022/04/27 09:15:37;;;;;;;5.93;5.43;;;;;;;;;;763542;77;26879;-75
2022/04/27 09:20:54;;;;;;;6.00;5.40;;;;;;;;;;792198;75;26924;-77
2022/04/27 09:33:05;;;;;;;11.30;10.40;;;;;;;;;;777110;76;27329;-76
2022/04/27 09:34:31;;;;;;;12.17;10.90;;;;;;;;;;756536;77;26952;-75
2022/04/27 09:35:14;;;;;;;9.53;8.67;;;;;;;;;;752431;78;27454;-75
2022/04/27 09:36:23;;;;;;;7.37;6.67;;;;;;;;;;757774;77;26965;-74
2022/04/27 09:37:27;;;;;;;6.97;5.87;;;;;;;;;;759448;77;27013;-75
2022/04/27 09:38:40;;;;;;;6.00;5.50;;;;;;;;;;759263;77;27397;-76
2022/04/27 09:39:43;;;;;;;6.70;5.80;;;;;;;;;;758625;77;26951;-79
2022/04/27 09:40:52;;;;;;;6.30;5.80;;;;;;;;;;758875;77;26961;-76
2022/04/27 09:45:48;;;;;;;5.70;5.27;;;;;;;;;;746572;79;26986;-76
2022/04/27 09:46:51;;;;;;;6.93;6.10;;;;;;;;;;734799;81;27531;-77
2022/04/27 09:48:00;;;;;;;11.07;7.40;;;;;;;;;;739352;80;26994;-75
2022/04/27 09:49:05;;;;;;;7.83;5.97;;;;;;;;;;739304;80;27077;-76
2022/04/27 09:50:09;;;;;;;7.23;5.90;;;;;;;;;;739930;79;27052;-75
2022/04/27 09:51:14;;;;;;;7.03;5.77;;;;;;;;;;743589;80;26977;-76
2022/04/27 09:53:48;;;;;;;6.03;5.43;;;;;;;;;;751284;77;27566;-76
2022/04/27 09:54:52;;;;;;;5.67;5.17;;;;;;;;;;751003;79;27002;-76
2022/04/27 09:55:56;;;;;;;6.00;5.40;;;;;;;;;;756193;78;27441;-77
2022/04/27 09:57:01;;;;;;;5.70;5.07;;;;;;;;;;762676;77;26970;-77
2022/04/27 09:58:05;;;;;;;6.27;5.40;;;;;;;;;;758802;78;26965;-77
2022/04/27 09:59:11;;;;;;;5.20;4.80;;;;;;;;;;758743;78;27020;-75
2022/04/27 10:00:15;;;;;;;5.80;5.30;;;;;;;;;;758739;78;26998;-77
2022/04/27 10:01:19;;;;;;;5.60;5.10;;;;;;;;;;760349;78;26950;-78
2022/04/27 10:04:28;;;;;;;6.20;5.60;;;;;;;;;;760633;77;26891;-76
2022/04/27 10:05:31;;;;;;;6.97;5.57;;;;;;;;;;760387;78;26949;-77
2022/04/27 10:06:35;;;;;;;5.77;5.27;;;;;;;;;;760443;78;26959;-76
2022/04/27 10:07:38;;;;;;;5.57;4.93;;;;;;;;;;759924;78;26934;-77
2022/04/27 10:08:42;;;;;;;6.37;5.47;;;;;;;;;;760354;78;26942;-77
2022/04/27 10:09:45;;;;;;;6.37;5.73;;;;;;;;;;760400;78;26924;-77
2022/04/27 10:14:18;;;;;;;9.90;6.30;;;;;;;;;;755753;78;27047;-76
2022/04/27 10:27:23;;;;;;;6.17;5.53;;;;;;;;;;771489;76;26927;-75
2022/04/27 10:28:46;;;;;;;5.80;5.30;;;;;;;;;;771618;77;26865;-75
2022/04/27 10:29:56;;;;;;;7.60;5.53;;;;;;;;;;770514;77;27320;-76
2022/04/27 10:35:17;;;;;;;6.60;6.00;;;;;;;;;;758262;77;26903;-78
2022/04/27 10:36:31;;;;;;;6.80;6.10;;;;;;;;;;772261;76;26912;-79
2022/04/27 10:37:51;;;;;;;6.93;6.27;;;;;;;;;;771887;77;26983;-76
2022/04/27 10:39:11;;;;;;;10.10;5.73;;;;;;;;;;771602;77;26920;-78
2022/04/27 10:40:29;;;;;;;6.20;5.60;;;;;;;;;;771773;77;26921;-76
2022/04/27 10:43:32;;;;;;;5.87;5.27;;;;;;;;;;804003;73;26896;-78
2022/04/27 10:44:37;;;;;;;6.07;5.60;;;;;;;;;;787939;74;26956;-76
2022/04/27 10:45:45;;;;;;;6.33;5.77;;;;;;;;;;778416;73;26993;-76
2022/04/27 10:46:49;;;;;;;6.27;5.60;;;;;;;;;;802543;73;27002;-77
2022/04/27 10:47:53;;;;;;;5.83;5.33;;;;;;;;;;799840;73;26930;-76
2022/04/27 10:48:58;;;;;;;12.07;6.07;;;;;;;;;;802852;73;26924;-77
2022/04/27 10:50:13;;;;;;;6.53;5.90;;;;;;;;;;795284;74;26957;-77
2022/04/27 10:55:18;;;;;;;6.33;5.70;;;;;;;;;;801354;73;26597;-77
2022/04/27 10:56:35;;;;;;;11.07;5.83;;;;;;;;;;801254;73;26773;-75
2022/04/27 10:57:39;;;;;;;7.37;5.87;;;;;;;;;;793480;73;26749;-77
2022/04/27 10:58:43;;;;;;;5.63;5.23;;;;;;;;;;799980;73;26760;-75
2022/04/27 11:26:28;;;;;;;5.57;5.00;;;;;;;;;;776693;75;27004;-76
2022/04/27 11:27:34;;;;;;;5.50;5.10;;;;;;;;;;767970;76;26999;-77
2022/04/27 11:28:39;;;;;;;4.97;4.57;;;;;;;;;;757716;78;27009;-74
2022/04/27 11:29:42;;;;;;;8.17;5.33;;;;;;;;;;777214;75;26979;-76
2022/04/27 11:30:45;;;;;;;5.37;4.97;;;;;;;;;;785086;75;26820;-76
2022/04/27 11:35:03;;;;;;;4.97;4.57;;;;;;;;;;803873;73;27459;-78
2022/04/27 11:36:08;;;;;;;7.20;4.70;;;;;;;;;;797413;73;26967;-76
2022/04/27 11:37:16;;;;;;;6.70;4.90;;;;;;;;;;775567;76;27006;-76
2022/04/27 11:38:21;;;;;;;5.90;4.30;;;;;;;;;;791090;73;26949;-76
2022/04/27 11:39:25;;;;;;;4.27;3.97;;;;;;;;;;802579;74;26977;-77
2022/04/27 11:40:28;;;;;;;6.93;4.60;;;;;;;;;;802501;74;26897;-76
2022/04/27 11:43:28;;;;;;;5.27;4.77;;;;;;;;;;800891;73;26738;-75
2022/04/27 11:44:32;;;;;;;5.33;4.83;;;;;;;;;;789426;73;26862;-77
2022/04/27 11:45:35;;;;;;;5.40;4.90;;;;;;;;;;796513;74;26985;-75
2022/04/27 11:53:15;;;;;;;6.13;5.27;;;;;;;;;;783931;75;26610;-75
2022/04/27 11:54:36;;;;;;;5.23;4.83;;;;;;;;;;757322;78;26810;-76
2022/04/27 11:55:37;;;;;;;5.50;4.67;;;;;;;;;;757251;78;26724;-78
2022/04/27 11:56:42;;;;;;;4.83;4.43;;;;;;;;;;757504;78;27124;-76
2022/04/27 11:57:45;;;;;;;5.73;5.13;;;;;;;;;;756899;78;26619;-76
2022/04/27 12:06:19;;;;;;;5.20;4.70;;;;;;;;;;763623;77;26937;-76
2022/04/27 12:07:23;;;;;;;6.47;4.30;;;;;;;;;;758769;77;26550;-76
2022/04/27 12:08:26;;;;;;;6.13;4.87;;;;;;;;;;758713;78;26905;-75
2022/04/27 12:09:29;;;;;;;4.43;4.03;;;;;;;;;;758582;78;26543;-76
2022/04/27 12:10:34;;;;;;;4.53;4.13;;;;;;;;;;758637;78;26534;-76
2022/04/27 12:13:40;;;;;;;4.53;4.13;;;;;;;;;;759599;77;26468;-76
2022/04/27 12:14:44;;;;;;;4.80;4.47;;;;;;;;;;744632;79;26510;-77
2022/04/27 12:15:54;;;;;;;4.60;4.20;;;;;;;;;;733085;81;27014;-77
2022/04/27 12:16:57;;;;;;;6.73;4.10;;;;;;;;;;725389;82;26673;-78
2022/04/27 12:18:14;;;;;;;5.17;3.97;;;;;;;;;;745577;79;26565;-78
2022/04/27 12:19:06;;;;;;;4.20;3.90;;;;;;;;;;741302;79;26576;-75
2022/04/27 12:20:25;;;;;;;6.93;4.43;;;;;;;;;;745671;79;26548;-76
2022/04/27 12:26:56;;;;;;;4.57;4.17;;;;;;;;;;748765;78;26536;-75
2022/04/27 12:28:00;;;;;;;4.67;4.20;;;;;;;;;;748213;78;26564;-76
2022/04/27 12:29:06;;;;;;;3.70;3.40;;;;;;;;;;741938;80;26646;-76
2022/04/27 12:30:11;;;;;;;4.27;3.87;;;;;;;;;;741975;80;26639;-76
2022/04/27 12:38:20;;;;;;;8.17;4.20;;;;;;;;;;760567;78;26485;-77
2022/04/27 12:39:28;;;;;;;3.70;3.50;;;;;;;;;;755515;78;27078;-75
2022/04/27 12:40:33;;;;;;;4.97;4.30;;;;;;;;;;757367;78;26572;-78
2022/04/27 12:43:23;;;;;;;5.20;4.07;;;;;;;;;;758454;78;26488;-76
2022/04/27 12:44:28;;;;;;;4.57;4.23;;;;;;;;;;745571;79;26511;-76
2022/04/27 12:45:32;;;;;;;5.30;4.00;;;;;;;;;;745450;79;26518;-76
2022/04/27 12:46:35;;;;;;;5.30;4.17;;;;;;;;;;745579;79;26657;-75
2022/04/27 12:47:40;;;;;;;4.10;3.70;;;;;;;;;;745555;79;26559;-76
2022/04/27 12:48:44;;;;;;;4.30;4.00;;;;;;;;;;746053;79;26533;-75
2022/04/27 12:54:10;;;;;;;4.33;4.03;;;;;;;;;;746368;79;26436;-74
2022/04/27 12:55:17;;;;;;;5.17;3.80;;;;;;;;;;790236;74;26469;-75
2022/04/27 12:56:22;;;;;;;5.60;3.90;;;;;;;;;;785988;75;26919;-75
2022/04/27 12:57:25;;;;;;;6.27;4.30;;;;;;;;;;776415;76;26481;-76
2022/04/27 12:58:29;;;;;;;8.37;4.40;;;;;;;;;;789074;75;26513;-76
2022/04/27 12:59:34;;;;;;;6.37;3.80;;;;;;;;;;788859;75;26985;-76
2022/04/27 13:04:20;;;;;;;4.40;3.97;;;;;;;;;;781218;75;26397;-77
2022/04/27 13:05:23;;;;;;;3.73;3.53;;;;;;;;;;779372;75;26609;-76
2022/04/27 13:06:30;;;;;;;5.43;4.00;;;;;;;;;;776180;76;26917;-77
2022/04/27 13:07:32;;;;;;;3.97;3.70;;;;;;;;;;779103;75;26581;-76
2022/04/27 13:08:35;;;;;;;3.80;3.50;;;;;;;;;;764051;77;26891;-76
2022/04/27 13:13:29;;;;;;;3.73;3.40;;;;;;;;;;785861;75;26397;-76
2022/04/27 13:14:34;;;;;;;4.30;4.00;;;;;;;;;;771866;77;26352;-76
2022/04/27 13:15:37;;;;;;;5.10;4.13;;;;;;;;;;771914;77;26664;-76
2022/04/27 13:16:41;;;;;;;4.80;3.90;;;;;;;;;;759614;78;26370;-76
2022/04/27 13:17:46;;;;;;;4.30;3.90;;;;;;;;;;759256;77;26478;-75
2022/04/27 13:18:49;;;;;;;5.60;4.30;;;;;;;;;;768764;77;26501;-74
2022/04/27 13:19:52;;;;;;;5.73;3.90;;;;;;;;;;770064;77;26556;-75
2022/04/27 13:28:05;;;;;;;6.20;4.03;;;;;;;;;;784971;75;26397;-75
2022/04/27 13:29:08;;;;;;;4.73;4.33;;;;;;;;;;784661;75;26468;-75
2022/04/27 13:30:11;;;;;;;5.67;4.20;;;;;;;;;;785083;74;26723;-76
2022/04/27 13:37:09;;;;;;;5.30;4.10;;;;;;;;;;783491;75;26395;-75
2022/04/27 13:38:12;;;;;;;4.77;4.20;;;;;;;;;;783142;76;26472;-76
2022/04/27 13:39:15;;;;;;;5.80;3.90;;;;;;;;;;783784;76;26853;-75
2022/04/27 13:40:18;;;;;;;4.40;4.00;;;;;;;;;;784283;76;26350;-76
2022/04/27 13:48:34;;;;;;;4.30;4.00;;;;;;;;;;788228;74;26421;-75
2022/04/27 13:49:37;;;;;;;4.97;4.47;;;;;;;;;;782912;76;26491;-75
2022/04/27 13:55:50;;;;;;;5.70;4.47;;;;;;;;;;817446;72;26362;-74
2022/04/27 13:56:55;;;;;;;6.30;4.70;;;;;;;;;;816875;72;26390;-75
2022/04/27 13:57:58;;;;;;;4.93;4.47;;;;;;;;;;816916;72;26439;-74
2022/04/27 13:59:00;;;;;;;4.53;4.13;;;;;;;;;;816827;72;26277;-73